| time (UTC) | temp F | wind direction | speed MPH | gust MPH | rain 1hr in | rain 24hr in | rain mn in | humidity % | barometer mb |
| 20260504220223 | 83 | 221 | 6.0 | 15.0 | 0.00 | 0.00 | 0.00 | 43 | 1001.0 |
| 20260504215240 | 83 | 199 | 5.0 | 11.0 | 0.00 | 0.00 | 0.00 | 45 | 1001.0 |
| 20260504214214 | 83 | 235 | 6.0 | 15.0 | 0.00 | 0.00 | 0.00 | 43 | 1001.1 |
| 20260504213212 | 82 | 136 | 5.0 | 17.0 | 0.00 | 0.00 | 0.00 | 43 | 1001.1 |
| 20260504212231 | 82 | 221 | 6.0 | 13.0 | 0.00 | 0.00 | 0.00 | 44 | 1001.2 |
| 20260504211228 | 82 | 262 | 4.0 | 16.0 | 0.00 | 0.00 | 0.00 | 44 | 1001.2 |
| 20260504210223 | 82 | 149 | 5.0 | 13.0 | 0.00 | 0.00 | 0.00 | 47 | 1001.2 |
| 20260504205223 | 81 | 278 | 8.0 | 15.0 | 0.00 | 0.00 | 0.00 | 44 | 1001.3 |
| 20260504204218 | 81 | 264 | 4.0 | 14.0 | 0.00 | 0.00 | 0.00 | 48 | 1001.3 |
| 20260504203215 | 81 | 139 | 4.0 | 12.0 | 0.00 | 0.00 | 0.00 | 46 | 1001.3 |
| 20260504202215 | 81 | 143 | 5.0 | 13.0 | 0.00 | 0.00 | 0.00 | 47 | 1001.4 |
| 20260504201231 | 80 | 190 | 6.0 | 14.0 | 0.00 | 0.00 | 0.00 | 46 | 1001.5 |
| 20260504200225 | 80 | 282 | 4.0 | 12.0 | 0.00 | 0.00 | 0.00 | 47 | 1001.6 |
| 20260504195221 | 80 | 174 | 6.0 | 12.0 | 0.00 | 0.00 | 0.00 | 45 | 1001.6 |
| 20260504194222 | 80 | 246 | 4.0 | 11.0 | 0.00 | 0.00 | 0.00 | 47 | 1001.7 |
| 20260504193219 | 80 | 212 | 4.0 | 12.0 | 0.00 | 0.00 | 0.00 | 47 | 1001.8 |
| 20260504192234 | 79 | 254 | 7.0 | 18.0 | 0.00 | 0.00 | 0.00 | 46 | 1001.9 |
| 20260504191230 | 80 | 229 | 4.0 | 11.0 | 0.00 | 0.00 | 0.00 | 47 | 1002.0 |
| 20260504190229 | 79 | 185 | 6.0 | 15.0 | 0.00 | 0.00 | 0.00 | 46 | 1002.1 |
| 20260504185228 | 79 | 169 | 4.0 | 13.0 | 0.00 | 0.00 | 0.00 | 48 | 1002.0 |
| 20260504184221 | 79 | 128 | 6.0 | 15.0 | 0.00 | 0.00 | 0.00 | 48 | 1002.3 |
| 20260504183221 | 79 | 262 | 5.0 | 12.0 | 0.00 | 0.00 | 0.00 | 47 | 1002.1 |
| 20260504182218 | 78 | 264 | 6.0 | 13.0 | 0.00 | 0.00 | 0.00 | 47 | 1002.2 |
| 20260504181234 | 78 | 123 | 3.0 | 16.0 | 0.00 | 0.00 | 0.00 | 48 | 1002.2 |
| 20260504180229 | 78 | 200 | 5.0 | 11.0 | 0.00 | 0.00 | 0.00 | 45 | 1002.3 |
| 20260504175229 | 77 | 105 | 6.0 | 10.0 | 0.00 | 0.00 | 0.00 | 51 | 1002.4 |
| 20260504174227 | 76 | 242 | 4.0 | 13.0 | 0.00 | 0.00 | 0.00 | 51 | 1002.4 |
| 20260504173222 | 76 | 152 | 7.0 | 17.0 | 0.00 | 0.00 | 0.00 | 50 | 1002.4 |
| 20260504172223 | 75 | 226 | 6.0 | 13.0 | 0.00 | 0.00 | 0.00 | 50 | 1002.5 |
| 20260504171218 | 75 | 224 | 5.0 | 12.0 | 0.00 | 0.00 | 0.00 | 51 | 1002.7 |
| 20260504170215 | 74 | 218 | 5.0 | 14.0 | 0.00 | 0.00 | 0.00 | 53 | 1002.8 |
| 20260504160219 | 73 | 271 | 6.0 | 19.0 | 0.00 | 0.00 | 0.00 | 52 | 1003.1 |
| 20260504150222 | 70 | 169 | 6.0 | 15.0 | 0.00 | 0.00 | 0.00 | 55 | 1003.3 |
| 20260504141215 | 68 | 195 | 4.0 | 13.0 | 0.00 | 0.00 | 0.00 | 60 | 1003.5 |
| 20260504140213 | 68 | 167 | 6.0 | 11.0 | 0.00 | 0.00 | 0.00 | 59 | 1003.7 |
| 20260504130217 | 64 | 211 | 3.0 | 10.0 | 0.00 | 0.00 | 0.00 | 66 | 1004.0 |
| 20260504120236 | 59 | 147 | 3.0 | 5.0 | 0.00 | 0.00 | 0.00 | 76 | 1004.3 |
| 20260504110222 | 57 | 162 | 0.0 | 0.0 | 0.00 | 0.00 | 0.00 | 80 | 1004.6 |
| 20260504100248 | 57 | 146 | 0.0 | 0.0 | 0.00 | 0.00 | 0.00 | 80 | 1005.4 |
| 20260504081215 | 62 | 200 | 1.0 | 2.0 | 0.00 | 0.00 | 0.00 | 70 | 1006.0 |
| 20260504080231 | 63 | 193 | 0.0 | 1.0 | 0.00 | 0.00 | 0.00 | 67 | 1006.1 |
| 20260504070216 | 66 | 179 | 2.0 | 4.0 | 0.00 | 0.00 | 0.00 | 61 | 1006.0 |
| 20260504060220 | 67 | 130 | 2.0 | 4.0 | 0.00 | 0.00 | 0.00 | 62 | 1006.0 |
| 20260504050221 | 64 | 241 | 0.0 | 2.0 | 0.00 | 0.00 | 0.00 | 62 | 1007.0 |
| 20260504045216 | 63 | 145 | 0.0 | 1.0 | 0.00 | 0.00 | 0.00 | 62 | 1007.3 |
| 20260504044237 | 63 | 161 | 1.0 | 2.0 | 0.00 | 0.00 | 0.00 | 62 | 1007.5 |
| 20260504043234 | 63 | 294 | 0.0 | 1.0 | 0.00 | 0.00 | 0.00 | 65 | 1007.6 |
| 20260504042229 | 62 | 148 | 0.0 | 1.0 | 0.00 | 0.00 | 0.00 | 66 | 1007.7 |
| 20260504041226 | 62 | 202 | 0.0 | 1.0 | 0.00 | 0.00 | 0.00 | 65 | 1007.6 |
| 20260504040226 | 62 | 98 | 0.0 | 2.0 | 0.00 | 0.00 | 0.00 | 66 | 1007.6 |
| 20260504035221 | 63 | 19 | 0.0 | 1.0 | 0.00 | 0.00 | 0.00 | 66 | 1007.8 |
| 20260504034218 | 61 | 19 | 0.0 | 1.0 | 0.00 | 0.00 | 0.00 | 69 | 1007.9 |
| 20260504033218 | 61 | 1 | 0.0 | 0.0 | 0.00 | 0.00 | 0.00 | 76 | 1008.1 |
| 20260504032214 | 61 | 1 | 0.0 | 0.0 | 0.00 | 0.00 | 0.00 | 71 | 1008.1 |
| 20260504031231 | 62 | 1 | 0.0 | 0.0 | 0.00 | 0.00 | 0.00 | 69 | 1008.1 |
| 20260504030246 | 62 | 1 | 0.0 | 0.0 | 0.00 | 0.00 | 0.00 | 69 | 1008.3 |
| 20260504025224 | 63 | 1 | 0.0 | 0.0 | 0.00 | 0.00 | 0.00 | 69 | 1008.2 |
| 20260504024221 | 63 | 1 | 0.0 | 0.0 | 0.00 | 0.00 | 0.00 | 69 | 1008.2 |
| 20260504023217 | 64 | 1 | 0.0 | 1.0 | 0.00 | 0.00 | 0.00 | 67 | 1008.1 |
| 20260504022217 | 64 | 1 | 0.0 | 0.0 | 0.00 | 0.00 | 0.00 | 64 | 1008.2 |
| 20260504021214 | 64 | 1 | 0.0 | 0.0 | 0.00 | 0.00 | 0.00 | 63 | 1008.1 |
| 20260504020249 | 65 | 1 | 0.0 | 0.0 | 0.00 | 0.00 | 0.00 | 61 | 1008.1 |
| 20260504015224 | 67 | 1 | 0.0 | 0.0 | 0.00 | 0.00 | 0.00 | 60 | 1007.9 |
| 20260504014222 | 68 | 1 | 0.0 | 0.0 | 0.00 | 0.00 | 0.00 | 56 | 1008.0 |
| 20260504013218 | 69 | 1 | 0.0 | 0.0 | 0.00 | 0.00 | 0.00 | 55 | 1007.8 |
| 20260504012234 | 71 | 1 | 0.0 | 0.0 | 0.00 | 0.00 | 0.00 | 53 | 1007.8 |
| 20260504011229 | 72 | 1 | 0.0 | 0.0 | 0.00 | 0.00 | 0.00 | 50 | 1007.5 |
| 20260504010229 | 73 | 1 | 0.0 | 1.0 | 0.00 | 0.00 | 0.00 | 49 | 1007.6 |
| 20260504005225 | 74 | 1 | 0.0 | 0.0 | 0.00 | 0.00 | 0.00 | 47 | 1007.8 |
| 20260504004222 | 75 | 6 | 0.0 | 2.0 | 0.00 | 0.00 | 0.00 | 46 | 1007.7 |
| 20260504003238 | 77 | 353 | 0.0 | 1.0 | 0.00 | 0.00 | 0.00 | 43 | 1007.6 |
| 20260504002218 | 79 | 34 | 0.0 | 1.0 | 0.00 | 0.00 | 0.00 | 41 | 1007.7 |
| 20260504001213 | 80 | 237 | 0.0 | 1.0 | 0.00 | 0.00 | 0.00 | 40 | 1007.7 |
| 20260504000228 | 81 | 237 | 0.0 | 1.0 | 0.00 | 0.00 | 0.00 | 39 | 1007.7 |
| 20260503235225 | 81 | 237 | 0.0 | 1.0 | 0.00 | 0.00 | 0.00 | 38 | 1007.7 |
| 20260503234225 | 82 | 295 | 0.0 | 1.0 | 0.00 | 0.00 | 0.00 | 38 | 1007.8 |
| 20260503233220 | 81 | 262 | 0.0 | 3.0 | 0.00 | 0.00 | 0.00 | 40 | 1007.8 |
| 20260503232217 | 80 | 261 | 0.0 | 3.0 | 0.00 | 0.00 | 0.00 | 39 | 1007.8 |
| 20260503231216 | 81 | 285 | 2.0 | 5.0 | 0.00 | 0.00 | 0.00 | 41 | 1007.9 |
| 20260503230233 | 80 | 265 | 0.0 | 6.0 | 0.00 | 0.00 | 0.00 | 42 | 1008.0 |
| 20260503225226 | 80 | 276 | 4.0 | 8.0 | 0.00 | 0.00 | 0.00 | 40 | 1008.2 |
| 20260503224222 | 80 | 260 | 1.0 | 8.0 | 0.00 | 0.00 | 0.00 | 42 | 1008.2 |
| 20260503223221 | 80 | 245 | 2.0 | 6.0 | 0.00 | 0.00 | 0.00 | 42 | 1008.3 |
| 20260503221221 | 79 | 255 | 6.0 | 12.0 | 0.00 | 0.00 | 0.00 | 39 | 1008.3 |